Arlington, Arizona
Current Conditions -  °F | °C
As of 5:15 PM on Wednesday 22 Oct 2014 (Local Time) from KBXK Reporting Station
Clear Clear  
Wind Chill: 84°   Ceiling: Unl
Heat Index: 84°   Visibility: 10mi
Dew Point: 48°   Wind: 5mph
Humidity: 28%   Direction: 140°SE
Pressure: 29.9"   Gusts: NA
Location:  33.33°N, 112.77°W
Report Text: KBXK 230015Z AUTO 14004KT 10SM CLR 29/09 A2990 RMK AO1
Loading
Personal Weather Stations






























Interactive Weather Map
Tropical Storm Tracking
New forecast layout! Learn more

10-Day Weather Forecast

Advertisements
Track Severe Weather on mobile